Time;durP1;ratioP1;P1;durP2;ratioP2;P2;SDS_P1;SDS_P2;PMS_P1;PMS_P2;Temp;Humidity;BMP_temperature;BMP_pressure;BME280_temperature;BME280_humidity;BME280_pressure;Samples;Min_cycle;Max_cycle;Signal;HPM_P1;HPM_P2
2022/01/22 00:01:53;;;;;;;;;16.50;15.00;3.80;45.20;;;;;;5074267;28;8792;-65
2022/01/22 00:04:19;;;;;;;;;16.50;16.00;3.90;45.00;;;;;;5074377;28;8800;-63
2022/01/22 00:06:45;;;;;;;;;19.00;17.25;3.90;45.10;;;;;;5074465;28;8772;-63
2022/01/22 00:09:11;;;;;;;;;16.50;16.00;4.10;45.10;;;;;;5074422;28;8795;-63
2022/01/22 00:11:41;;;;;;;;;21.50;21.00;4.50;44.70;;;;;;5073787;28;8760;-63
2022/01/22 00:14:25;;;;;;;;;18.25;16.00;4.50;44.70;;;;;;5074547;28;8872;-62
2022/01/22 00:16:53;;;;;;;;;20.25;19.75;4.70;44.30;;;;;;5074428;28;8776;-61
2022/01/22 00:19:20;;;;;;;;;25.25;21.75;5.20;43.60;;;;;;5074165;28;8816;-60
2022/01/22 00:21:45;;;;;;;;;16.25;14.50;5.30;43.30;;;;;;5074620;28;8772;-63
2022/01/22 00:24:13;;;;;;;;;20.75;20.75;5.50;42.70;;;;;;5074495;28;8789;-64
2022/01/22 00:26:39;;;;;;;;;15.25;14.00;5.50;42.90;;;;;;5074229;28;8773;-63
2022/01/22 00:29:06;;;;;;;;;16.50;14.75;5.70;42.30;;;;;;5074215;28;8791;-64
2022/01/22 00:31:31;;;;;;;;;18.50;17.50;5.70;42.40;;;;;;5074384;28;8756;-63
2022/01/22 00:33:57;;;;;;;;;15.00;15.00;5.80;42.20;;;;;;5060681;28;8799;-64
2022/01/22 00:36:23;;;;;;;;;12.50;12.50;5.60;42.30;;;;;;5074514;28;8765;-64
2022/01/22 00:38:49;;;;;;;;;12.25;11.75;5.70;42.40;;;;;;5074346;28;8804;-64
2022/01/22 00:41:14;;;;;;;;;12.00;10.25;5.60;42.30;;;;;;5074466;28;8849;-63
2022/01/22 00:43:40;;;;;;;;;12.25;12.25;5.30;42.90;;;;;;5074298;28;8773;-63
2022/01/22 00:46:06;;;;;;;;;8.75;8.75;4.80;44.20;;;;;;5074429;28;8760;-64
2022/01/22 00:48:32;;;;;;;;;14.50;13.00;4.60;44.50;;;;;;5074006;28;8809;-64
2022/01/22 00:50:59;;;;;;;;;12.00;10.25;4.60;45.20;;;;;;5074036;28;8785;-64
2022/01/22 00:53:25;;;;;;;;;14.25;8.75;4.90;44.50;;;;;;5073998;28;8776;-63
2022/01/22 00:55:52;;;;;;;;;10.00;10.00;4.60;44.10;;;;;;5074221;28;9455;-63
2022/01/22 00:58:18;;;;;;;;;8.00;8.00;4.60;44.80;;;;;;5073825;28;8832;-63
2022/01/22 01:00:44;;;;;;;;;14.50;14.50;4.20;45.20;;;;;;5073802;28;8835;-63
2022/01/22 01:03:10;;;;;;;;;9.50;8.25;4.20;45.50;;;;;;5068220;28;8795;-63
2022/01/22 01:05:36;;;;;;;;;10.50;10.50;4.20;45.20;;;;;;5073688;28;9464;-64
2022/01/22 01:08:03;;;;;;;;;8.25;8.25;4.20;45.50;;;;;;5074941;28;8764;-64
2022/01/22 01:10:29;;;;;;;;;7.75;7.75;4.20;45.10;;;;;;5077625;28;8865;-63
2022/01/22 01:12:55;;;;;;;;;12.00;8.25;4.40;44.50;;;;;;5077420;28;8796;-63
2022/01/22 01:15:38;;;;;;;;;9.50;9.00;4.50;43.90;;;;;;5077428;28;8799;-63
2022/01/22 01:34:22;;;;;;;;;16.00;13.25;4.30;44.00;;;;;;5057338;28;8759;-63
2022/01/22 01:36:48;;;;;;;;;10.50;10.50;4.60;44.00;;;;;;5057464;28;8775;-63
2022/01/22 01:39:21;;;;;;;;;13.00;11.75;4.60;43.70;;;;;;5057134;28;8814;-60
2022/01/22 01:41:55;;;;;;;;;14.00;12.50;4.30;44.30;;;;;;5057059;28;9373;-61
2022/01/22 01:44:21;;;;;;;;;18.50;15.25;4.60;44.50;;;;;;5057249;28;8775;-62
2022/01/22 01:46:49;;;;;;;;;16.00;14.00;4.70;44.20;;;;;;5056942;28;8771;-61
2022/01/22 01:49:16;;;;;;;;;19.50;19.50;4.80;45.00;;;;;;5056893;28;8767;-63
2022/01/22 01:51:42;;;;;;;;;17.75;17.00;4.70;45.10;;;;;;5056820;28;8770;-63
2022/01/22 01:59:39;;;;;;;;;18.00;16.25;4.70;45.50;;;;;;5057007;28;8779;-64
2022/01/22 02:02:05;;;;;;;;;19.00;16.50;4.70;45.40;;;;;;5056739;28;8775;-64
2022/01/22 02:04:31;;;;;;;;;17.00;16.50;4.60;45.10;;;;;;5056459;28;8751;-62
2022/01/22 02:06:57;;;;;;;;;33.00;33.00;4.60;45.20;;;;;;5056686;28;8767;-62
2022/01/22 02:09:24;;;;;;;;;26.00;23.25;4.60;45.60;;;;;;5056521;28;8763;-62
2022/01/22 02:12:57;;;;;;;;;26.00;25.50;4.40;46.30;;;;;;5056337;28;8794;-62
2022/01/22 02:25:27;;;;;;;;;29.00;25.50;4.40;46.00;;;;;;5056298;28;8735;-61
2022/01/22 02:27:53;;;;;;;;;25.00;21.00;4.10;47.90;;;;;;5056159;28;8785;-62
2022/01/22 02:30:22;;;;;;;;;32.75;27.75;4.00;48.00;;;;;;5056222;28;8763;-62
2022/01/22 02:38:45;;;;;;;;;26.50;26.50;4.00;48.90;;;;;;5053446;28;8938;-64
2022/01/22 02:41:16;;;;;;;;;33.50;24.50;4.00;48.90;;;;;;5055470;28;9369;-62
2022/01/22 02:43:42;;;;;;;;;29.75;26.25;3.80;49.20;;;;;;5055731;28;8779;-61
2022/01/22 02:46:08;;;;;;;;;26.50;26.00;4.10;48.90;;;;;;5055996;28;8787;-64
2022/01/22 02:48:34;;;;;;;;;32.75;28.00;4.00;49.00;;;;;;5056207;28;8928;-62
2022/01/22 02:51:00;;;;;;;;;25.75;24.25;4.00;49.10;;;;;;5055933;28;8775;-63
2022/01/22 02:53:27;;;;;;;;;30.75;26.50;3.90;49.00;;;;;;5055364;28;8769;-62
2022/01/22 02:55:54;;;;;;;;;28.75;28.25;3.80;49.70;;;;;;5055908;28;8809;-61
2022/01/22 02:58:20;;;;;;;;;27.00;24.25;3.90;49.60;;;;;;5055807;28;8767;-64
2022/01/22 03:00:46;;;;;;;;;21.75;20.00;4.30;48.70;;;;;;5055663;28;9413;-62
2022/01/22 03:03:11;;;;;;;;;17.00;13.25;4.40;47.80;;;;;;5055574;28;8789;-62
2022/01/22 03:05:37;;;;;;;;;13.75;13.75;4.50;47.90;;;;;;5055373;28;8771;-61
2022/01/22 03:08:07;;;;;;;;;24.50;22.50;4.30;47.80;;;;;;5055249;28;8917;-61
2022/01/22 03:10:34;;;;;;;;;25.00;18.50;4.30;48.50;;;;;;5055703;28;8801;-61
2022/01/22 03:18:15;;;;;;;;;19.50;18.50;4.10;49.90;;;;;;5055406;28;8925;-62
2022/01/22 03:21:10;;;;;;;;;19.50;19.50;4.00;49.80;;;;;;5055409;28;8794;-61
2022/01/22 03:29:07;;;;;;;;;16.50;14.00;4.00;49.10;;;;;;5055169;28;8771;-60
2022/01/22 03:31:33;;;;;;;;;18.75;17.00;3.80;49.80;;;;;;5054185;28;8844;-61
2022/01/22 03:33:59;;;;;;;;;18.50;18.50;3.80;50.00;;;;;;5054899;28;8774;-61
2022/01/22 03:36:29;;;;;;;;;19.00;17.00;3.90;50.30;;;;;;5055137;28;8801;-61
2022/01/22 03:38:55;;;;;;;;;18.50;18.25;4.00;49.60;;;;;;5059192;28;8839;-62
2022/01/22 03:41:23;;;;;;;;;20.25;17.75;4.00;49.50;;;;;;5074703;28;8776;-61
2022/01/22 03:43:50;;;;;;;;;16.00;16.00;3.80;49.50;;;;;;5074853;28;8768;-61
2022/01/22 03:46:16;;;;;;;;;24.75;21.25;3.60;50.10;;;;;;5074855;28;8779;-62
2022/01/22 03:48:42;;;;;;;;;24.50;22.25;3.70;50.60;;;;;;5075000;28;8780;-60
2022/01/22 03:51:08;;;;;;;;;19.00;17.25;3.90;49.70;;;;;;5074642;28;8875;-61
2022/01/22 03:53:34;;;;;;;;;17.25;17.25;4.00;49.20;;;;;;5074660;28;8785;-61
2022/01/22 03:58:25;;;;;;;;;22.25;21.25;4.40;48.20;;;;;;5074645;28;8773;-62
2022/01/22 04:01:03;;;;;;;;;21.75;20.50;4.50;47.90;;;;;;5074723;28;9433;-62
2022/01/22 04:03:34;;;;;;;;;13.25;13.25;4.60;47.50;;;;;;5073357;28;8788;-62
2022/01/22 04:08:44;;;;;;;;;19.25;19.25;4.40;47.10;;;;;;5074544;28;8777;-62
2022/01/22 04:11:14;;;;;;;;;19.75;15.50;4.30;47.10;;;;;;5074407;28;8768;-62
2022/01/22 04:13:40;;;;;;;;;24.00;22.25;4.10;47.90;;;;;;5074212;28;8873;-62
2022/01/22 04:16:07;;;;;;;;;17.00;17.00;4.10;47.80;;;;;;5074283;28;8764;-62
2022/01/22 04:26:58;;;;;;;;;15.00;14.50;4.20;46.90;;;;;;5074373;28;8757;-61
2022/01/22 04:29:25;;;;;;;;;16.25;14.00;3.90;47.20;;;;;;5074435;28;8784;-60
2022/01/22 04:31:51;;;;;;;;;13.50;13.25;4.00;47.10;;;;;;5074323;28;8775;-60
2022/01/22 04:34:17;;;;;;;;;13.75;13.75;4.10;46.90;;;;;;5074235;28;8788;-62
2022/01/22 04:36:43;;;;;;;;;12.50;12.50;4.20;46.50;;;;;;5073639;28;8769;-62
2022/01/22 04:39:10;;;;;;;;;13.75;13.75;4.00;46.80;;;;;;5074004;28;8812;-60
2022/01/22 04:41:36;;;;;;;;;14.50;14.50;4.10;46.40;;;;;;5074029;28;8887;-61
2022/01/22 04:44:05;;;;;;;;;14.00;13.00;4.30;45.80;;;;;;5076707;28;8776;-62
2022/01/22 04:52:28;;;;;;;;;15.00;14.00;5.00;44.50;;;;;;5078259;28;8781;-62
2022/01/22 04:54:59;;;;;;;;;21.50;16.00;4.80;43.90;;;;;;5078036;28;8756;-61
2022/01/22 04:57:27;;;;;;;;;18.00;16.00;4.80;43.60;;;;;;5078186;28;8756;-61
2022/01/22 04:59:53;;;;;;;;;26.00;21.25;4.70;43.20;;;;;;5078016;28;9490;-61
2022/01/22 05:02:19;;;;;;;;;22.00;18.00;5.00;43.10;;;;;;5077822;28;8756;-61
2022/01/22 05:04:45;;;;;;;;;17.50;17.50;4.90;42.30;;;;;;5077639;28;8765;-63
2022/01/22 05:07:10;;;;;;;;;17.00;15.50;4.80;42.50;;;;;;5077086;28;8788;-62
2022/01/22 05:09:36;;;;;;;;;13.75;13.75;4.80;42.80;;;;;;5077688;28;8761;-62
2022/01/22 05:12:04;;;;;;;;;20.75;16.00;4.90;42.60;;;;;;5077685;28;8807;-61
2022/01/22 05:14:30;;;;;;;;;12.00;10.75;4.80;42.70;;;;;;5078072;28;8780;-61
2022/01/22 05:16:59;;;;;;;;;20.00;16.00;5.00;42.70;;;;;;5075367;28;8777;-62
2022/01/22 05:19:35;;;;;;;;;24.50;21.25;5.30;42.90;;;;;;5077726;28;8796;-62
2022/01/22 05:22:11;;;;;;;;;20.00;20.00;5.10;42.40;;;;;;5077502;28;8772;-61
2022/01/22 05:24:42;;;;;;;;;21.50;21.50;4.70;42.20;;;;;;5077500;28;8792;-62
2022/01/22 05:27:26;;;;;;;;;22.25;20.75;4.50;42.90;;;;;;5077294;28;8863;-63
2022/01/22 05:32:48;;;;;;;;;19.00;19.00;4.70;41.60;;;;;;5077185;28;9438;-63
2022/01/22 05:38:00;;;;;;;;;23.75;22.75;4.80;41.60;;;;;;5077275;28;8760;-62
2022/01/22 05:40:27;;;;;;;;;26.00;23.50;4.30;42.10;;;;;;5077157;28;8792;-62
2022/01/22 05:42:52;;;;;;;;;21.00;18.25;4.60;41.80;;;;;;5076520;28;8769;-63
2022/01/22 05:45:18;;;;;;;;;29.00;23.75;4.80;40.90;;;;;;5077080;28;8863;-62
2022/01/22 05:47:45;;;;;;;;;36.25;31.50;4.50;40.60;;;;;;5077010;28;8831;-61
2022/01/22 05:50:24;;;;;;;;;35.50;30.25;4.70;40.90;;;;;;5076822;28;8776;-62
2022/01/22 05:52:57;;;;;;;;;41.50;34.00;4.90;40.20;;;;;;5077204;28;8804;-62
2022/01/22 06:00:41;;;;;;;;;24.75;23.00;5.50;39.40;;;;;;5076644;28;8765;-61
2022/01/22 06:03:08;;;;;;;;;21.75;20.50;5.40;39.10;;;;;;5076570;28;8857;-61
2022/01/22 06:05:33;;;;;;;;;21.25;19.00;5.50;39.30;;;;;;5076654;28;8809;-62
2022/01/22 06:07:59;;;;;;;;;21.00;18.50;4.90;40.20;;;;;;5076869;28;8871;-63
2022/01/22 06:10:29;;;;;;;;;27.50;21.75;5.20;40.80;;;;;;5076727;28;8776;-63
2022/01/22 06:13:14;;;;;;;;;26.00;26.00;5.30;40.30;;;;;;5076281;28;8820;-64
2022/01/22 06:15:40;;;;;;;;;25.50;21.25;5.30;40.40;;;;;;5076538;28;8753;-63
2022/01/22 06:18:05;;;;;;;;;27.00;27.00;5.10;41.50;;;;;;5075505;28;8815;-63
2022/01/22 06:20:32;;;;;;;;;30.50;27.00;5.10;40.60;;;;;;5075226;28;8820;-62
2022/01/22 06:22:58;;;;;;;;;26.75;25.25;5.00;41.00;;;;;;5076550;28;8765;-63
2022/01/22 06:25:24;;;;;;;;;22.75;22.75;5.30;41.60;;;;;;5075251;28;8841;-64
2022/01/22 06:27:50;;;;;;;;;32.25;29.25;5.50;40.30;;;;;;5076320;28;8761;-63
2022/01/22 06:30:15;;;;;;;;;35.00;34.75;5.70;39.00;;;;;;5076246;28;8780;-62
2022/01/22 06:32:41;;;;;;;;;34.50;29.75;5.90;39.00;;;;;;5075668;28;8781;-63
2022/01/22 06:35:07;;;;;;;;;36.75;36.00;5.90;38.60;;;;;;5076319;28;8752;-62
2022/01/22 06:37:33;;;;;;;;;41.25;36.75;6.10;38.30;;;;;;5076285;28;9418;-63
2022/01/22 06:42:31;;;;;;;;;42.25;40.50;6.10;37.80;;;;;;5075737;28;8753;-63
2022/01/22 06:44:58;;;;;;;;;45.00;43.00;6.10;38.00;;;;;;5076135;28;8870;-62
2022/01/22 06:47:25;;;;;;;;;32.00;30.00;6.10;37.40;;;;;;5076005;28;8812;-61
2022/01/22 06:49:51;;;;;;;;;32.50;31.75;5.90;36.40;;;;;;5075666;28;8772;-63
2022/01/22 06:52:17;;;;;;;;;42.25;39.50;6.00;37.40;;;;;;5075733;28;8772;-62
2022/01/22 06:54:44;;;;;;;;;39.75;36.75;6.30;37.10;;;;;;5072496;28;8816;-61
2022/01/22 06:57:10;;;;;;;;;50.00;43.50;6.40;36.60;;;;;;5075508;28;8792;-62
2022/01/22 06:59:36;;;;;;;;;40.75;36.75;6.30;36.20;;;;;;5075259;28;8788;-64
2022/01/22 07:02:02;;;;;;;;;25.75;22.25;6.40;36.40;;;;;;5075490;28;8760;-61
2022/01/22 07:04:31;;;;;;;;;26.75;24.75;6.40;36.90;;;;;;5075715;28;8867;-64
2022/01/22 07:06:57;;;;;;;;;30.00;29.75;6.20;38.20;;;;;;5074667;28;8792;-63
2022/01/22 07:09:24;;;;;;;;;35.75;33.50;6.00;38.10;;;;;;5075293;28;8784;-63
2022/01/22 07:11:50;;;;;;;;;23.25;23.25;5.90;38.60;;;;;;5074633;28;8906;-63
2022/01/22 07:14:16;;;;;;;;;25.75;25.00;5.90;38.10;;;;;;5075431;28;8765;-63
2022/01/22 07:16:42;;;;;;;;;38.50;38.00;6.20;37.60;;;;;;5073677;28;8775;-63
2022/01/22 07:19:08;;;;;;;;;37.75;32.25;5.80;37.50;;;;;;5074420;28;8800;-63
2022/01/22 07:21:36;;;;;;;;;29.50;26.00;5.50;37.60;;;;;;5075259;28;8833;-63
2022/01/22 07:26:31;;;;;;;;;33.50;28.00;5.40;37.90;;;;;;5068697;28;8908;-64
2022/01/22 07:28:58;;;;;;;;;41.25;35.75;5.10;38.50;;;;;;5070968;28;8800;-62
2022/01/22 07:31:26;;;;;;;;;45.25;42.00;5.30;38.80;;;;;;5074378;28;8869;-62
2022/01/22 07:33:52;;;;;;;;;52.00;41.50;5.50;38.90;;;;;;5074088;28;8788;-62
2022/01/22 07:36:17;;;;;;;;;53.00;45.25;5.70;38.10;;;;;;5074771;28;8784;-62
2022/01/22 07:38:43;;;;;;;;;55.50;47.00;6.10;37.50;;;;;;5074883;28;9257;-63
2022/01/22 07:41:10;;;;;;;;;58.50;46.50;6.10;37.40;;;;;;5074582;28;8885;-62
2022/01/22 07:43:37;;;;;;;;;40.25;39.25;6.30;37.00;;;;;;5071470;28;8908;-63
2022/01/22 07:46:04;;;;;;;;;60.25;48.00;5.90;38.00;;;;;;5072308;28;9445;-62
2022/01/22 07:48:30;;;;;;;;;52.25;43.75;5.60;38.00;;;;;;5075193;28;8785;-62
2022/01/22 07:50:55;;;;;;;;;38.50;34.50;5.90;38.10;;;;;;5074261;28;8772;-62
2022/01/22 07:53:24;;;;;;;;;42.00;39.00;5.80;37.60;;;;;;5074219;28;8780;-62
2022/01/22 07:55:50;;;;;;;;;30.75;27.75;5.50;39.10;;;;;;5074606;28;8776;-61
2022/01/22 07:58:15;;;;;;;;;29.25;28.00;5.60;39.90;;;;;;5065995;28;8768;-64
2022/01/22 08:00:41;;;;;;;;;21.50;20.00;5.60;39.30;;;;;;5054311;28;8775;-63
2022/01/22 08:03:08;;;;;;;;;27.00;25.75;5.40;40.00;;;;;;5054467;28;8774;-63
2022/01/22 08:05:37;;;;;;;;;23.75;22.25;5.30;40.00;;;;;;5054319;28;8803;-63
2022/01/22 08:08:04;;;;;;;;;21.00;19.00;5.20;40.40;;;;;;5054449;28;8766;-63
2022/01/22 08:10:31;;;;;;;;;10.25;10.25;5.40;40.20;;;;;;5054374;28;8778;-63
2022/01/22 08:12:57;;;;;;;;;26.00;22.25;5.10;39.80;;;;;;5053281;28;8836;-64
2022/01/22 08:15:23;;;;;;;;;34.50;32.50;5.10;41.00;;;;;;5054293;28;8782;-63
2022/01/22 08:17:49;;;;;;;;;26.50;21.00;5.50;40.80;;;;;;5053764;28;8872;-64
2022/01/22 08:20:16;;;;;;;;;24.75;24.25;5.50;40.90;;;;;;5054360;28;9624;-64
2022/01/22 08:22:45;;;;;;;;;24.00;21.75;5.50;41.00;;;;;;5054240;28;8763;-63
2022/01/22 08:25:11;;;;;;;;;22.50;19.00;5.40;40.80;;;;;;5054303;28;8782;-63
2022/01/22 08:30:09;;;;;;;;;29.00;24.75;5.30;42.20;;;;;;5071959;28;8771;-61
2022/01/22 08:37:49;;;;;;;;;25.25;25.25;5.50;43.40;;;;;;5074147;28;8760;-61
2022/01/22 08:40:15;;;;;;;;;24.50;23.00;5.70;43.30;;;;;;5074039;28;8818;-62
2022/01/22 08:42:40;;;;;;;;;35.75;34.75;5.50;46.50;;;;;;5074013;28;8850;-60
2022/01/22 08:45:07;;;;;;;;;25.50;23.00;5.70;46.50;;;;;;5073952;28;8805;-62
2022/01/22 08:47:33;;;;;;;;;24.00;19.25;5.70;48.20;;;;;;5067282;28;8792;-61
2022/01/22 08:49:59;;;;;;;;;19.25;18.75;5.10;49.50;;;;;;5064989;28;8775;-62
2022/01/22 08:52:29;;;;;;;;;10.50;10.50;4.20;57.30;;;;;;5073195;28;8753;-60
2022/01/22 08:54:55;;;;;;;;;21.50;15.00;3.80;99.90;;;;;;5073041;28;8745;-61
2022/01/22 08:57:21;;;;;;;;;18.50;17.50;3.50;91.20;;;;;;5073467;28;8780;-59
2022/01/22 08:59:47;;;;;;;;;19.75;18.50;3.20;88.40;;;;;;5073137;28;8804;-62
2022/01/22 09:02:14;;;;;;;;;25.50;20.25;3.50;99.90;;;;;;5073763;28;8761;-62
2022/01/22 09:04:41;;;;;;;;;17.00;17.00;3.40;99.90;;;;;;5073134;28;8894;-61
2022/01/22 09:07:07;;;;;;;;;13.75;12.00;3.40;99.90;;;;;;5060398;28;8830;-61
2022/01/22 09:09:36;;;;;;;;;12.50;9.00;3.40;99.90;;;;;;5067415;28;8760;-62
2022/01/22 09:12:03;;;;;;;;;31.00;27.00;3.90;99.90;;;;;;5067238;28;8761;-62
2022/01/22 09:14:29;;;;;;;;;26.50;26.50;3.70;99.90;;;;;;5072793;28;8745;-62
2022/01/22 09:16:56;;;;;;;;;27.75;27.00;4.00;99.90;;;;;;5073001;28;9522;-62
2022/01/22 09:19:27;;;;;;;;;37.50;33.25;4.20;99.90;;;;;;5073371;28;8800;-62
2022/01/22 09:21:53;;;;;;;;;37.50;35.50;4.30;99.90;;;;;;5073481;28;8780;-62
2022/01/22 09:24:19;;;;;;;;;17.25;17.25;4.30;76.10;;;;;;5073732;28;8776;-62
2022/01/22 09:26:46;;;;;;;;;41.75;38.00;4.30;78.50;;;;;;5073662;28;8764;-63
2022/01/22 09:29:11;;;;;;;;;39.25;35.50;4.40;77.70;;;;;;5074900;28;9541;-63
2022/01/22 09:31:37;;;;;;;;;46.75;43.00;4.20;86.80;;;;;;5077598;28;8788;-63
2022/01/22 09:34:03;;;;;;;;;40.00;36.00;4.40;84.30;;;;;;5077558;28;8764;-63
2022/01/22 09:36:31;;;;;;;;;34.00;33.00;4.60;83.70;;;;;;5077244;28;8795;-63
2022/01/22 09:38:57;;;;;;;;;37.50;35.00;4.70;76.30;;;;;;5077338;28;8804;-63
2022/01/22 09:41:25;;;;;;;;;46.75;41.50;4.40;74.80;;;;;;5077311;28;9445;-63
2022/01/22 09:43:53;;;;;;;;;31.75;31.00;4.20;82.50;;;;;;5077362;28;8765;-63
2022/01/22 09:46:21;;;;;;;;;42.75;41.25;4.20;82.70;;;;;;5077262;28;9532;-63
2022/01/22 09:48:49;;;;;;;;;42.00;41.75;4.00;85.50;;;;;;5077328;28;9493;-62
2022/01/22 09:51:15;;;;;;;;;36.50;36.00;4.00;86.70;;;;;;5076916;28;8799;-63
2022/01/22 09:53:43;;;;;;;;;23.50;23.50;4.10;84.40;;;;;;5077197;28;8764;-63
2022/01/22 09:56:10;;;;;;;;;54.00;43.25;4.00;81.70;;;;;;5076884;28;8760;-63
2022/01/22 09:58:36;;;;;;;;;44.25;37.25;4.00;86.10;;;;;;5076772;28;8773;-63
2022/01/22 10:01:25;;;;;;;;;34.50;31.00;4.30;81.80;;;;;;5069014;28;8879;-64
2022/01/22 10:03:52;;;;;;;;;18.25;17.25;4.30;99.90;;;;;;5072878;28;8776;-63
2022/01/22 10:06:21;;;;;;;;;32.50;32.00;4.40;79.50;;;;;;5073338;28;8791;-64
2022/01/22 10:08:47;;;;;;;;;36.25;36.25;4.30;77.50;;;;;;5069186;28;8780;-62
2022/01/22 10:11:31;;;;;;;;;46.75;43.00;4.60;79.40;;;;;;5075787;28;9561;-66
2022/01/22 10:13:59;;;;;;;;;45.50;41.00;4.80;76.70;;;;;;5070064;28;8898;-61
2022/01/22 10:16:28;;;;;;;;;37.25;36.25;4.80;76.40;;;;;;5075942;28;8793;-61
2022/01/22 10:19:27;;;;;;;;;58.25;47.00;5.10;73.90;;;;;;5061345;28;9583;-60
2022/01/22 10:21:59;;;;;;;;;48.75;42.25;5.40;71.60;;;;;;5031102;28;8778;-65
2022/01/22 10:24:41;;;;;;;;;53.25;44.50;5.30;74.70;;;;;;5027182;28;8765;-62
2022/01/22 10:27:26;;;;;;;;;50.50;44.25;5.50;72.00;;;;;;5026120;28;8748;-62
2022/01/22 10:29:55;;;;;;;;;49.75;44.50;5.40;70.60;;;;;;5027127;28;8774;-63
2022/01/22 10:32:27;;;;;;;;;50.75;44.00;5.60;71.30;;;;;;5032505;28;8771;-65
2022/01/22 10:35:08;;;;;;;;;34.50;31.50;5.50;70.30;;;;;;5030565;28;8756;-62
2022/01/22 10:37:34;;;;;;;;;22.00;15.50;5.30;72.10;;;;;;5030811;28;10240;-61
2022/01/22 10:40:28;;;;;;;;;44.25;41.00;5.30;70.90;;;;;;5026983;28;8832;-63
2022/01/22 10:43:17;;;;;;;;;49.25;42.00;5.60;73.10;;;;;;5026558;28;8922;-63
2022/01/22 10:46:09;;;;;;;;;51.75;45.25;5.60;68.00;;;;;;5032308;28;8737;-63
2022/01/22 10:48:38;;;;;;;;;43.50;40.25;5.60;69.10;;;;;;5030264;28;8833;-62
2022/01/22 10:51:12;;;;;;;;;31.00;30.50;5.70;68.10;;;;;;5032281;28;8914;-63
2022/01/22 10:53:43;;;;;;;;;33.00;26.00;5.80;67.60;;;;;;5032348;28;8766;-60
2022/01/22 10:56:14;;;;;;;;;27.25;26.25;5.80;66.70;;;;;;5030148;28;8793;-62
2022/01/22 10:59:01;;;;;;;;;23.25;22.50;5.60;69.00;;;;;;5074933;28;8816;-63
2022/01/22 11:01:30;;;;;;;;;24.25;24.25;5.70;69.00;;;;;;5069539;28;8804;-62
2022/01/22 11:04:14;;;;;;;;;29.50;29.50;5.80;70.40;;;;;;5071481;28;8772;-62
2022/01/22 11:06:58;;;;;;;;;28.25;27.25;5.30;72.90;;;;;;5073630;28;8772;-64
2022/01/22 11:09:26;;;;;;;;;32.50;30.00;5.10;74.70;;;;;;5067974;28;8807;-60
2022/01/22 11:11:53;;;;;;;;;34.75;32.75;4.80;80.90;;;;;;5073827;28;8788;-64
2022/01/22 11:14:19;;;;;;;;;36.75;33.75;5.20;74.20;;;;;;5068015;28;8850;-63
2022/01/22 11:16:48;;;;;;;;;27.00;24.00;5.30;76.00;;;;;;5069890;28;8772;-63
2022/01/22 11:19:21;;;;;;;;;23.25;23.25;5.20;99.90;;;;;;5069251;28;8820;-63
2022/01/22 11:21:55;;;;;;;;;17.00;17.00;5.80;87.50;;;;;;5073726;28;9559;-62
2022/01/22 11:24:25;;;;;;;;;24.25;24.00;5.40;72.00;;;;;;5067931;28;8792;-63
2022/01/22 11:26:54;;;;;;;;;22.25;21.00;4.90;78.40;;;;;;5068155;28;8776;-62
2022/01/22 11:29:39;;;;;;;;;15.25;13.50;5.00;77.80;;;;;;5065039;28;8783;-62
2022/01/22 11:32:10;;;;;;;;;23.00;20.00;4.80;99.90;;;;;;5066719;28;8792;-62
2022/01/22 11:34:39;;;;;;;;;34.25;28.25;4.80;99.90;;;;;;5057538;28;9567;-61
2022/01/22 11:37:48;;;;;;;;;19.75;16.50;4.90;99.90;;;;;;5067131;28;8803;-62
2022/01/22 11:40:23;;;;;;;;;24.25;24.00;4.80;99.90;;;;;;5064222;28;8835;-62
2022/01/22 11:43:06;;;;;;;;;27.00;25.25;5.10;99.90;;;;;;5067717;28;8791;-63
2022/01/22 11:45:46;;;;;;;;;26.75;26.50;5.60;99.90;;;;;;5062017;28;8779;-62
2022/01/22 11:48:18;;;;;;;;;37.00;32.75;5.50;99.90;;;;;;5061993;28;8866;-62
2022/01/22 11:50:47;;;;;;;;;33.25;28.00;5.10;99.90;;;;;;5063632;28;9567;-63
2022/01/22 11:53:29;;;;;;;;;30.50;30.50;4.60;99.90;;;;;;5064583;28;8790;-63
2022/01/22 11:56:10;;;;;;;;;34.50;33.75;4.80;99.90;;;;;;5065513;28;9422;-61
2022/01/22 11:59:04;;;;;;;;;33.25;30.25;4.90;99.90;;;;;;5059498;28;8767;-63
2022/01/22 12:01:52;;;;;;;;;34.00;30.75;5.40;99.90;;;;;;5066584;28;8894;-62
2022/01/22 12:04:23;;;;;;;;;31.75;27.75;5.50;99.90;;;;;;5061653;28;8788;-62
2022/01/22 12:07:01;;;;;;;;;37.50;34.00;5.60;99.90;;;;;;5063935;28;8788;-63
2022/01/22 12:09:33;;;;;;;;;51.50;45.00;5.80;99.90;;;;;;5060824;28;8802;-64
2022/01/22 12:15:23;;;;;;;;;35.50;34.50;6.20;99.90;;;;;;5061823;28;8759;-63
2022/01/22 12:17:57;;;;;;;;;39.50;33.25;5.70;99.90;;;;;;5061505;28;8811;-62
2022/01/22 12:23:18;;;;;;;;;31.75;30.25;4.70;99.90;;;;;;5061028;28;8755;-61
2022/01/22 12:25:43;;;;;;;;;75.50;61.50;5.30;99.90;;;;;;5064633;28;8882;-62
2022/01/22 12:28:14;;;;;;;;;66.75;54.25;5.80;99.90;;;;;;5062084;28;8811;-62
2022/01/22 12:30:42;;;;;;;;;68.75;55.75;6.20;99.90;;;;;;5057441;28;8794;-62
2022/01/22 12:33:15;;;;;;;;;63.50;51.50;6.60;99.90;;;;;;5063057;28;8917;-60
2022/01/22 12:35:46;;;;;;;;;44.75;40.25;6.80;99.90;;;;;;5062576;28;8846;-62
2022/01/22 12:38:23;;;;;;;;;44.75;42.00;6.50;99.90;;;;;;5062682;28;8791;-62
2022/01/22 12:40:58;;;;;;;;;43.00;40.50;6.40;99.90;;;;;;5066964;28;8808;-63
2022/01/22 12:43:33;;;;;;;;;40.00;34.50;6.50;99.90;;;;;;5058275;28;8799;-63
2022/01/22 12:46:01;;;;;;;;;33.50;30.25;6.50;99.90;;;;;;5054313;28;8778;-64
2022/01/22 12:48:30;;;;;;;;;40.50;37.50;6.40;72.50;;;;;;5052479;28;8824;-64
2022/01/22 12:51:04;;;;;;;;;36.00;33.00;6.70;69.80;;;;;;5053765;28;8775;-63
2022/01/22 12:53:33;;;;;;;;;46.50;43.25;5.90;71.90;;;;;;5054061;28;8771;-64
2022/01/22 12:56:14;;;;;;;;;57.75;49.00;6.30;72.40;;;;;;5053855;28;8865;-64
2022/01/22 12:58:41;;;;;;;;;64.00;53.25;6.60;70.20;;;;;;5055346;28;8792;-65
2022/01/22 13:01:12;;;;;;;;;65.00;53.25;6.70;68.70;;;;;;5060756;28;8863;-65
2022/01/22 13:03:46;;;;;;;;;68.25;57.00;7.00;68.20;;;;;;5065611;28;8772;-66
2022/01/22 13:06:12;;;;;;;;;68.75;56.75;7.10;66.10;;;;;;5062745;28;8764;-64
2022/01/22 13:08:39;;;;;;;;;74.00;58.25;7.40;65.60;;;;;;5068914;28;8784;-64
2022/01/22 13:11:10;;;;;;;;;60.00;50.75;7.70;64.80;;;;;;5066303;28;8809;-65
2022/01/22 13:13:39;;;;;;;;;60.50;50.50;7.50;64.50;;;;;;5066344;28;8840;-63
2022/01/22 13:16:10;;;;;;;;;60.25;50.50;7.60;64.20;;;;;;5059906;28;8811;-64
2022/01/22 13:18:57;;;;;;;;;63.50;52.25;7.80;64.10;;;;;;5057471;28;8842;-62
2022/01/22 13:21:23;;;;;;;;;77.75;58.00;8.00;63.30;;;;;;5057685;28;8797;-62
2022/01/22 13:24:10;;;;;;;;;59.75;50.00;7.70;63.20;;;;;;5057515;28;8783;-64
2022/01/22 13:26:57;;;;;;;;;69.00;56.25;7.50;63.60;;;;;;5061026;28;8788;-62
2022/01/22 13:29:31;;;;;;;;;68.50;56.50;7.50;63.90;;;;;;5068462;28;8885;-63
2022/01/22 13:32:10;;;;;;;;;68.00;56.00;7.40;64.70;;;;;;5061195;28;8798;-64
2022/01/22 13:48:58;;;;;;;;;64.50;54.75;7.00;67.20;;;;;;5004044;28;8820;-63
2022/01/22 13:51:25;;;;;;;;;52.25;44.75;7.10;65.50;;;;;;5007222;28;9470;-63
2022/01/22 13:53:52;;;;;;;;;68.50;55.00;7.00;65.90;;;;;;5004377;28;9601;-63
2022/01/22 13:56:21;;;;;;;;;66.25;53.00;7.00;66.00;;;;;;5006317;28;8825;-63
2022/01/22 13:58:47;;;;;;;;;66.75;53.50;7.30;64.90;;;;;;5006314;28;8781;-64
2022/01/22 14:04:14;;;;;;;;;59.00;47.75;10.40;55.30;;;;;;4975646;28;8921;-64
2022/01/22 14:06:42;;;;;;;;;57.00;46.25;11.50;50.10;;;;;;4975842;28;8779;-64
2022/01/22 14:09:15;;;;;;;;;51.00;44.00;10.90;50.00;;;;;;4975751;28;8780;-65
2022/01/22 14:12:07;;;;;;;;;57.50;47.75;9.90;51.80;;;;;;4975483;28;8843;-64
2022/01/22 14:14:59;;;;;;;;;68.00;54.75;9.30;53.90;;;;;;4994311;28;8784;-63
2022/01/22 14:17:31;;;;;;;;;63.00;52.00;8.60;56.50;;;;;;4988398;28;9552;-64
2022/01/22 14:20:05;;;;;;;;;76.00;61.75;7.90;58.60;;;;;;4992835;28;8824;-64
2022/01/22 14:22:52;;;;;;;;;67.75;55.00;7.60;60.30;;;;;;4995070;28;8777;-65
2022/01/22 14:25:18;;;;;;;;;52.75;46.75;7.60;60.60;;;;;;4989490;28;8810;-65
2022/01/22 14:27:55;;;;;;;;;54.75;45.00;7.40;61.80;;;;;;4992115;28;8789;-64
2022/01/22 14:30:50;;;;;;;;;57.25;48.75;7.20;61.40;;;;;;4990650;28;8803;-66
2022/01/22 14:33:18;;;;;;;;;65.00;53.00;7.50;61.60;;;;;;4983130;28;8790;-64
2022/01/22 14:35:57;;;;;;;;;64.00;52.50;7.50;60.20;;;;;;4990155;28;8912;-64
2022/01/22 14:38:45;;;;;;;;;53.75;45.50;7.30;61.00;;;;;;4990882;28;8792;-62
2022/01/22 14:44:30;;;;;;;;;63.00;50.75;7.00;64.30;;;;;;5074623;28;8842;-63
2022/01/22 14:46:56;;;;;;;;;66.00;53.25;7.30;63.30;;;;;;5075219;28;8764;-66
2022/01/22 14:49:26;;;;;;;;;57.75;46.25;7.80;60.40;;;;;;5074968;28;8833;-71
2022/01/22 14:51:52;;;;;;;;;67.00;52.75;8.00;58.40;;;;;;5075402;28;8816;-67
2022/01/22 14:54:22;;;;;;;;;73.25;59.50;8.30;58.10;;;;;;5075079;28;8784;-64
2022/01/22 14:56:49;;;;;;;;;73.75;58.00;8.20;57.00;;;;;;5070859;28;9764;-64
2022/01/22 14:59:15;;;;;;;;;62.00;51.00;8.00;57.30;;;;;;5070889;28;8831;-63
2022/01/22 15:01:41;;;;;;;;;67.75;56.00;8.10;58.00;;;;;;5069936;28;8752;-65